createdAt,value
2018-12-18T00:00:03.194Z,59.51
2018-12-18T00:02:31.736Z,59.91
2018-12-18T00:05:04.375Z,59.88
2018-12-18T00:07:32.879Z,59.36
2018-12-18T00:10:01.434Z,59.59
2018-12-18T00:12:29.956Z,59.51
2018-12-18T00:15:10.751Z,59.66
2018-12-18T00:17:39.261Z,59.73
2018-12-18T00:20:07.796Z,59.51
2018-12-18T00:22:36.246Z,59.35
2018-12-18T00:25:05.937Z,59.44
2018-12-18T00:27:34.548Z,59.41
2018-12-18T00:30:03.057Z,59.44
2018-12-18T00:32:31.571Z,59.40
2018-12-18T00:35:00.022Z,59.49
2018-12-18T00:37:28.499Z,59.30
2018-12-18T00:39:56.977Z,59.75
2018-12-18T00:42:25.419Z,59.77
2018-12-18T00:44:53.873Z,59.75
2018-12-18T00:47:22.323Z,59.78
2018-12-18T00:49:50.857Z,59.42
2018-12-18T00:52:19.385Z,59.48
2018-12-18T00:54:47.895Z,59.34
2018-12-18T00:57:16.494Z,59.60
2018-12-18T00:59:45.029Z,59.36
2018-12-18T01:02:13.618Z,59.27
2018-12-18T01:04:42.113Z,59.60
2018-12-18T01:07:10.742Z,59.72
2018-12-18T01:09:39.197Z,59.66
2018-12-18T01:12:07.654Z,59.75
2018-12-18T01:14:36.109Z,59.41
2018-12-18T01:17:04.585Z,59.15
2018-12-18T01:19:33.064Z,59.82
2018-12-18T01:22:01.566Z,59.29
2018-12-18T01:24:30.086Z,59.38
2018-12-18T01:26:58.604Z,59.63
2018-12-18T01:29:27.225Z,59.33
2018-12-18T01:31:55.738Z,59.07
2018-12-18T01:34:24.218Z,59.42
2018-12-18T01:36:52.745Z,59.54
2018-12-18T01:39:21.226Z,59.78
2018-12-18T01:41:49.785Z,59.90
2018-12-18T01:44:18.282Z,59.75
2018-12-18T01:46:46.748Z,59.51
2018-12-18T01:49:15.283Z,59.72
2018-12-18T01:51:43.806Z,60.10
2018-12-18T01:54:12.258Z,60.38
2018-12-18T01:56:40.761Z,59.96
2018-12-18T01:59:09.237Z,59.95
2018-12-18T02:01:37.751Z,60.22
2018-12-18T02:04:06.401Z,60.59
2018-12-18T02:06:34.915Z,60.13
2018-12-18T02:09:04.042Z,60.58
2018-12-18T02:11:32.539Z,60.04
2018-12-18T02:14:01.029Z,59.98
2018-12-18T02:16:29.559Z,60.33
2018-12-18T02:18:57.986Z,60.17
2018-12-18T02:21:26.530Z,60.63
2018-12-18T02:23:55.076Z,60.23
2018-12-18T02:26:23.618Z,60.51
2018-12-18T02:28:52.103Z,60.81
2018-12-18T02:31:20.654Z,60.80
2018-12-18T02:33:49.105Z,60.98
2018-12-18T02:36:17.588Z,60.72
2018-12-18T02:38:46.057Z,61.16
2018-12-18T02:41:14.565Z,61.06
2018-12-18T02:43:43.155Z,61.04
2018-12-18T02:46:11.642Z,61.54
2018-12-18T02:48:40.155Z,61.57
2018-12-18T02:51:08.611Z,61.81
2018-12-18T02:53:37.070Z,61.76
2018-12-18T02:56:05.529Z,61.81
2018-12-18T02:58:34.029Z,61.86
2018-12-18T03:01:02.559Z,61.67
2018-12-18T03:03:30.999Z,61.73
2018-12-18T03:05:59.517Z,61.50
2018-12-18T03:08:28.011Z,61.91
2018-12-18T03:10:56.482Z,62.05
2018-12-18T03:13:25.047Z,61.71
2018-12-18T03:15:53.551Z,61.54
2018-12-18T03:18:22.043Z,61.63
2018-12-18T03:20:51.102Z,61.57
2018-12-18T03:23:19.623Z,61.54
2018-12-18T03:25:48.133Z,61.46
2018-12-18T03:28:16.750Z,61.28
2018-12-18T03:30:45.271Z,60.89
2018-12-18T03:33:13.820Z,60.92
2018-12-18T03:35:43.584Z,61.13
2018-12-18T03:38:12.202Z,60.84
2018-12-18T03:40:40.672Z,60.50
2018-12-18T03:43:09.213Z,60.93
2018-12-18T03:45:37.822Z,60.98
2018-12-18T03:48:06.436Z,61.08
2018-12-18T03:50:35.051Z,61.18
2018-12-18T03:53:03.551Z,61.47
2018-12-18T03:55:32.074Z,61.47
2018-12-18T03:58:00.680Z,61.63
2018-12-18T04:00:29.213Z,61.71
2018-12-18T04:02:57.808Z,61.14
2018-12-18T04:05:26.299Z,61.64
2018-12-18T04:07:54.770Z,61.43
2018-12-18T04:10:23.294Z,61.11
2018-12-18T04:12:51.786Z,61.58
2018-12-18T04:15:20.474Z,61.28
2018-12-18T04:17:48.931Z,61.50
2018-12-18T04:20:17.393Z,61.12
2018-12-18T04:22:45.824Z,61.12
2018-12-18T04:25:14.293Z,61.60
2018-12-18T04:27:42.724Z,61.18
2018-12-18T04:30:11.242Z,61.35
2018-12-18T04:32:40.516Z,61.74
2018-12-18T04:35:08.989Z,61.33
2018-12-18T04:37:37.583Z,61.57
2018-12-18T04:40:06.349Z,61.38
2018-12-18T04:42:34.853Z,61.75
2018-12-18T04:45:03.574Z,62.02
2018-12-18T04:47:32.243Z,62.02
2018-12-18T04:50:00.767Z,62.30
2018-12-18T04:52:29.282Z,61.99
2018-12-18T04:54:57.858Z,62.27
2018-12-18T04:57:26.345Z,61.78
2018-12-18T04:59:54.876Z,62.47
2018-12-18T05:02:23.361Z,62.56
2018-12-18T05:04:51.908Z,62.28
2018-12-18T05:07:20.495Z,62.43
2018-12-18T05:09:49.011Z,62.13
2018-12-18T05:12:17.502Z,62.29
2018-12-18T05:14:46.146Z,62.12
2018-12-18T05:17:14.744Z,62.20
2018-12-18T05:19:43.250Z,61.89
2018-12-18T05:22:11.799Z,62.05
2018-12-18T05:24:40.350Z,62.39
2018-12-18T05:27:09.014Z,62.08
2018-12-18T05:29:37.576Z,62.66
2018-12-18T05:32:06.041Z,62.33
2018-12-18T05:34:34.670Z,62.15
2018-12-18T05:37:03.200Z,62.12
2018-12-18T05:39:31.751Z,62.30
2018-12-18T05:42:00.248Z,62.10
2018-12-18T05:44:28.777Z,62.55
2018-12-18T05:46:57.251Z,62.27
2018-12-18T05:49:25.753Z,62.32
2018-12-18T05:51:54.215Z,62.71
2018-12-18T05:54:23.047Z,62.50
2018-12-18T05:56:51.556Z,62.68
2018-12-18T05:59:20.036Z,62.40
2018-12-18T06:01:48.656Z,62.77
2018-12-18T06:04:17.188Z,62.49
2018-12-18T06:06:45.718Z,62.85
2018-12-18T06:09:14.231Z,62.97
2018-12-18T06:11:42.840Z,62.61
2018-12-18T06:14:11.519Z,62.38
2018-12-18T06:16:40.080Z,62.60
2018-12-18T06:19:08.640Z,62.36
2018-12-18T06:21:37.197Z,62.73
2018-12-18T06:24:05.675Z,62.18
2018-12-18T06:26:34.161Z,62.46
2018-12-18T06:29:02.637Z,62.31
2018-12-18T06:31:31.152Z,62.41
2018-12-18T06:33:59.666Z,62.23
2018-12-18T06:36:28.139Z,62.65
2018-12-18T06:38:56.597Z,62.25
2018-12-18T06:41:25.049Z,62.28
2018-12-18T06:43:53.521Z,62.62
2018-12-18T06:46:22.087Z,62.55
2018-12-18T06:48:50.705Z,62.34
2018-12-18T06:51:19.286Z,62.37
2018-12-18T06:53:47.779Z,62.67
2018-12-18T06:56:16.250Z,62.35
2018-12-18T06:58:44.683Z,62.58
2018-12-18T07:01:13.189Z,62.63
2018-12-18T07:03:41.655Z,62.01
2018-12-18T07:06:10.101Z,62.00
2018-12-18T07:08:38.576Z,62.63
2018-12-18T07:11:07.089Z,62.21
2018-12-18T07:13:35.582Z,62.10
2018-12-18T07:16:04.112Z,62.09
2018-12-18T07:18:32.614Z,62.36
2018-12-18T07:21:01.016Z,61.97
2018-12-18T07:23:29.494Z,62.11
2018-12-18T07:25:57.968Z,62.10
2018-12-18T07:28:26.459Z,62.38
2018-12-18T07:30:55.129Z,62.01
2018-12-18T07:33:23.789Z,62.06
2018-12-18T07:35:52.209Z,62.28
2018-12-18T07:38:20.675Z,62.01
2018-12-18T07:40:49.126Z,61.79
2018-12-18T07:43:17.652Z,62.02
2018-12-18T07:45:46.237Z,62.11
2018-12-18T07:48:14.778Z,61.83
2018-12-18T07:50:43.467Z,61.75
2018-12-18T07:53:12.207Z,61.86
2018-12-18T07:55:40.708Z,61.42
2018-12-18T07:58:09.212Z,61.53
2018-12-18T08:00:37.773Z,61.39
2018-12-18T08:03:06.298Z,61.22
2018-12-18T08:05:34.788Z,61.04
2018-12-18T08:08:03.322Z,60.65
2018-12-18T08:10:31.750Z,60.67
2018-12-18T08:13:00.302Z,60.64
2018-12-18T08:15:28.815Z,60.21
2018-12-18T08:17:57.267Z,60.54
2018-12-18T08:20:25.758Z,60.06
2018-12-18T08:22:54.271Z,59.59
2018-12-18T08:25:23.396Z,59.59
2018-12-18T08:27:51.866Z,58.72
2018-12-18T08:30:20.335Z,57.33
2018-12-18T08:32:49.184Z,55.69
2018-12-18T08:35:17.634Z,53.30
2018-12-18T08:37:46.091Z,52.53
2018-12-18T08:40:14.632Z,50.61
2018-12-18T08:42:43.113Z,49.48
2018-12-18T08:45:11.595Z,48.13
2018-12-18T08:47:40.100Z,47.03
2018-12-18T08:50:09.494Z,45.30
2018-12-18T08:52:38.018Z,43.40
2018-12-18T08:55:07.158Z,42.41
2018-12-18T08:57:35.720Z,41.15
2018-12-18T09:00:04.488Z,40.84
2018-12-18T09:02:32.979Z,40.04
2018-12-18T09:05:01.525Z,39.19
2018-12-18T09:07:29.972Z,37.46
2018-12-18T09:09:58.446Z,37.17
2018-12-18T09:12:27.002Z,35.82
2018-12-18T09:14:57.476Z,34.86
2018-12-18T09:17:31.715Z,34.29
2018-12-18T09:20:00.232Z,33.55
2018-12-18T09:22:28.822Z,33.40
2018-12-18T09:24:57.266Z,33.08
2018-12-18T09:27:25.802Z,33.19
2018-12-18T09:29:54.298Z,32.69
2018-12-18T09:32:22.859Z,33.45
2018-12-18T09:34:51.428Z,34.20
2018-12-18T09:37:19.927Z,35.14
2018-12-18T09:39:48.434Z,34.35
2018-12-18T09:42:22.235Z,33.22
2018-12-18T09:44:50.689Z,32.67
2018-12-18T09:47:19.240Z,31.59
2018-12-18T09:49:47.751Z,30.50
2018-12-18T09:52:16.310Z,29.17
2018-12-18T09:54:44.775Z,27.99
2018-12-18T09:57:18.403Z,27.85
2018-12-18T09:59:46.912Z,28.87
2018-12-18T10:02:15.415Z,29.13
2018-12-18T10:04:44.033Z,29.44
2018-12-18T10:07:12.504Z,28.87
2018-12-18T10:09:41.045Z,27.93
2018-12-18T10:12:09.590Z,27.06
2018-12-18T10:14:38.361Z,26.74
2018-12-18T10:17:06.997Z,25.20
2018-12-18T10:19:35.635Z,25.28
2018-12-18T10:22:04.095Z,25.54
2018-12-18T10:24:32.646Z,25.50
2018-12-18T10:27:01.091Z,25.37
2018-12-18T10:29:29.990Z,25.16
2018-12-18T10:31:58.568Z,25.63
2018-12-18T10:34:27.081Z,25.29
2018-12-18T10:36:55.613Z,24.41
2018-12-18T10:39:24.103Z,23.78
2018-12-18T10:41:52.673Z,23.84
2018-12-18T10:44:21.287Z,23.36
2018-12-18T10:46:49.874Z,24.20
2018-12-18T10:49:18.383Z,24.29
2018-12-18T10:51:46.858Z,23.86
2018-12-18T10:54:15.390Z,24.36
2018-12-18T10:56:43.895Z,23.67
2018-12-18T10:59:12.349Z,24.30
2018-12-18T11:01:46.110Z,24.34
2018-12-18T11:04:14.565Z,25.36
2018-12-18T11:06:43.082Z,25.30
2018-12-18T11:09:11.555Z,25.62
2018-12-18T11:11:40.039Z,25.84
2018-12-18T11:14:08.539Z,27.47
2018-12-18T11:16:37.525Z,27.94
2018-12-18T11:19:06.451Z,28.71
2018-12-18T11:21:34.995Z,29.23
2018-12-18T11:24:03.569Z,29.78
2018-12-18T11:26:32.062Z,30.13
2018-12-18T11:29:00.567Z,30.42
2018-12-18T11:31:29.070Z,30.70
2018-12-18T11:33:57.544Z,31.08
2018-12-18T11:36:26.049Z,30.95
2018-12-18T11:38:54.548Z,32.18
2018-12-18T11:41:23.257Z,32.44
2018-12-18T11:43:51.718Z,32.44
2018-12-18T11:46:20.194Z,32.77
2018-12-18T11:48:48.713Z,32.74
2018-12-18T11:51:17.278Z,32.55
2018-12-18T11:53:45.754Z,32.86
2018-12-18T11:56:14.182Z,32.69
2018-12-18T11:58:42.717Z,34.01
2018-12-18T12:01:11.281Z,34.24
2018-12-18T12:03:39.780Z,34.61
2018-12-18T12:06:08.221Z,34.57
2018-12-18T12:08:36.671Z,34.44
2018-12-18T12:11:05.159Z,34.41
2018-12-18T12:13:33.616Z,34.08
2018-12-18T12:16:02.196Z,34.46
2018-12-18T12:21:26.519Z,33.39
2018-12-18T12:23:55.198Z,33.24
2018-12-18T12:26:29.059Z,33.14
2018-12-18T12:28:57.598Z,33.56
2018-12-18T12:31:26.216Z,34.02
2018-12-18T12:33:54.741Z,33.79
2018-12-18T12:36:29.415Z,33.89
2018-12-18T12:38:53.894Z,34.53
2018-12-18T12:41:22.481Z,34.26
2018-12-18T12:43:50.989Z,35.14
2018-12-18T12:46:19.541Z,36.19
2018-12-18T12:48:54.961Z,35.59
2018-12-18T12:51:24.135Z,34.77
2018-12-18T12:53:53.428Z,35.37
2018-12-18T12:56:22.351Z,36.13
2018-12-18T12:58:50.818Z,36.27
2018-12-18T13:01:19.679Z,36.70
2018-12-18T13:03:48.317Z,37.31
2018-12-18T13:06:17.179Z,38.80
2018-12-18T13:08:46.245Z,39.23
2018-12-18T13:11:14.928Z,40.07
2018-12-18T13:13:43.935Z,40.28
2018-12-18T13:16:12.486Z,40.39
2018-12-18T13:18:41.043Z,42.51
2018-12-18T13:21:09.570Z,42.49
2018-12-18T13:23:38.103Z,42.65
2018-12-18T13:26:06.682Z,43.48
2018-12-18T13:28:35.323Z,43.76
2018-12-18T13:31:04.011Z,44.37
2018-12-18T13:33:33.788Z,45.09
2018-12-18T13:36:02.480Z,44.95
2018-12-18T13:38:31.044Z,45.17
2018-12-18T13:40:59.571Z,45.64
2018-12-18T13:43:28.159Z,46.02
2018-12-18T13:45:59.344Z,45.86
2018-12-18T13:48:28.004Z,46.13
2018-12-18T13:50:57.110Z,46.16
2018-12-18T13:53:25.636Z,46.79
2018-12-18T13:55:54.703Z,46.76
2018-12-18T13:58:23.416Z,47.26
2018-12-18T14:00:51.965Z,47.34
2018-12-18T14:03:20.677Z,47.74
2018-12-18T14:05:49.190Z,48.27
2018-12-18T14:08:17.942Z,48.20
2018-12-18T14:10:46.605Z,48.71
2018-12-18T14:13:15.555Z,49.35
2018-12-18T14:15:44.334Z,49.47
2018-12-18T14:18:12.910Z,49.95
2018-12-18T14:20:41.516Z,50.17
2018-12-18T14:23:11.305Z,50.11
2018-12-18T14:25:39.899Z,50.36
2018-12-18T14:28:08.404Z,50.37
2018-12-18T14:30:37.079Z,51.31
2018-12-18T14:33:05.636Z,51.24
2018-12-18T14:35:34.170Z,51.68
2018-12-18T14:38:02.919Z,52.21
2018-12-18T14:40:31.607Z,51.52
2018-12-18T14:43:00.386Z,51.68
2018-12-18T14:45:28.891Z,52.48
2018-12-18T14:47:58.141Z,52.40
2018-12-18T14:50:26.696Z,52.29
2018-12-18T14:52:55.280Z,53.10
2018-12-18T14:55:23.793Z,53.04
2018-12-18T14:57:52.372Z,53.14
2018-12-18T15:00:21.021Z,53.30
2018-12-18T15:02:49.692Z,53.53
2018-12-18T15:05:18.287Z,53.71
2018-12-18T15:07:46.783Z,53.83
2018-12-18T15:10:15.562Z,54.19
2018-12-18T15:12:50.723Z,54.40
2018-12-18T15:15:19.340Z,54.10
2018-12-18T15:17:47.859Z,54.24
2018-12-18T15:20:16.448Z,54.49
2018-12-18T15:22:45.022Z,54.82
2018-12-18T15:25:13.557Z,54.83
2018-12-18T15:27:42.086Z,54.68
2018-12-18T15:30:11.055Z,55.01
2018-12-18T15:32:39.821Z,54.90
2018-12-18T15:35:08.389Z,55.48
2018-12-18T15:37:37.212Z,55.50
2018-12-18T15:40:05.946Z,55.71
2018-12-18T15:42:34.438Z,55.59
2018-12-18T15:45:02.966Z,55.80
2018-12-18T15:47:31.485Z,55.59
2018-12-18T15:49:59.996Z,55.48
2018-12-18T15:52:28.667Z,55.62
2018-12-18T15:54:57.201Z,55.89
2018-12-18T15:57:25.682Z,55.99
2018-12-18T15:59:54.181Z,56.11
2018-12-18T16:02:24.346Z,56.12
2018-12-18T16:04:53.031Z,55.91
2018-12-18T16:07:21.482Z,55.88
2018-12-18T16:09:50.034Z,55.99
2018-12-18T16:12:18.566Z,55.93
2018-12-18T16:14:47.186Z,56.12
2018-12-18T16:17:15.753Z,55.91
2018-12-18T16:19:44.375Z,56.05
2018-12-18T16:22:12.849Z,56.17
2018-12-18T16:24:41.472Z,56.21
2018-12-18T16:27:10.031Z,56.30
2018-12-18T16:29:39.269Z,56.38
2018-12-18T16:32:07.895Z,56.41
2018-12-18T16:34:36.401Z,56.09
2018-12-18T16:37:05.246Z,56.22
2018-12-18T16:39:33.837Z,56.51
2018-12-18T16:42:02.415Z,56.34
2018-12-18T16:44:30.994Z,56.60
2018-12-18T16:46:59.526Z,56.43
2018-12-18T16:49:28.013Z,56.18
2018-12-18T16:51:56.539Z,56.56
2018-12-18T16:54:25.339Z,56.46
2018-12-18T16:56:54.055Z,56.58
2018-12-18T16:59:22.533Z,56.48
2018-12-18T17:01:51.167Z,56.34
2018-12-18T17:04:19.744Z,56.24
2018-12-18T17:06:48.373Z,56.38
2018-12-18T17:09:16.963Z,56.95
2018-12-18T17:11:45.527Z,56.33
2018-12-18T17:14:14.290Z,56.41
2018-12-18T17:16:42.939Z,56.36
2018-12-18T17:19:11.457Z,56.36
2018-12-18T17:21:40.062Z,56.29
2018-12-18T17:24:08.731Z,56.50
2018-12-18T17:26:37.468Z,56.11
2018-12-18T17:29:06.951Z,56.12
2018-12-18T17:31:35.661Z,55.90
2018-12-18T17:34:04.201Z,56.04
2018-12-18T17:36:32.752Z,55.59
2018-12-18T17:39:01.246Z,55.58
2018-12-18T17:41:29.757Z,55.70
2018-12-18T17:43:58.377Z,55.52
2018-12-18T17:46:27.316Z,55.45
2018-12-18T17:49:06.292Z,55.49
2018-12-18T17:51:37.931Z,54.95
2018-12-18T17:59:34.766Z,55.27
2018-12-18T18:02:03.422Z,55.24
2018-12-18T18:04:32.023Z,54.69
2018-12-18T18:07:00.543Z,54.83
2018-12-18T18:09:28.965Z,54.82
2018-12-18T18:11:57.796Z,54.98
2018-12-18T18:14:26.434Z,55.52
2018-12-18T18:16:55.292Z,54.99
2018-12-18T18:19:36.521Z,55.16
2018-12-18T18:22:22.402Z,55.39
2018-12-18T18:27:58.515Z,55.40
2018-12-18T18:45:35.116Z,55.22
2018-12-18T18:54:23.147Z,55.26
2018-12-18T19:03:16.952Z,54.80
2018-12-18T19:17:59.197Z,54.85
2018-12-18T19:32:47.872Z,54.41
2018-12-18T23:54:52.932Z,47.26
